createdAt,value
2019-01-13T00:01:53.283Z,21.46
2019-01-13T00:04:57.760Z,21.47
2019-01-13T00:08:02.293Z,21.42
2019-01-13T00:11:05.818Z,21.40
2019-01-13T00:14:09.308Z,21.37
2019-01-13T00:17:12.798Z,21.31
2019-01-13T00:20:16.284Z,21.31
2019-01-13T00:23:19.793Z,21.28
2019-01-13T00:26:25.384Z,21.26
2019-01-13T00:29:28.851Z,21.21
2019-01-13T00:32:32.380Z,21.18
2019-01-13T00:35:36.887Z,21.17
2019-01-13T00:38:41.358Z,21.11
2019-01-13T00:41:47.150Z,21.10
2019-01-13T00:44:50.641Z,21.07
2019-01-13T00:47:54.106Z,21.06
2019-01-13T00:50:57.609Z,21.05
2019-01-13T00:54:01.152Z,21.02
2019-01-13T00:57:04.651Z,20.97
2019-01-13T01:00:11.441Z,20.98
2019-01-13T01:03:16.936Z,20.95
2019-01-13T01:06:20.383Z,20.96
2019-01-13T01:09:23.898Z,20.91
2019-01-13T01:12:27.494Z,20.89
2019-01-13T01:15:30.969Z,20.85
2019-01-13T01:18:35.506Z,20.84
2019-01-13T01:21:39.024Z,20.84
2019-01-13T01:24:42.525Z,20.84
2019-01-13T01:27:45.970Z,20.82
2019-01-13T01:30:49.422Z,20.79
2019-01-13T01:33:53.225Z,20.73
2019-01-13T01:36:56.742Z,20.77
2019-01-13T01:40:00.248Z,20.73
2019-01-13T01:43:03.726Z,20.70
2019-01-13T01:46:07.270Z,20.71
2019-01-13T01:49:10.739Z,20.69
2019-01-13T01:52:16.274Z,20.66
2019-01-13T01:55:20.073Z,20.63
2019-01-13T01:58:23.595Z,20.64
2019-01-13T02:01:27.095Z,20.63
2019-01-13T02:04:30.692Z,20.59
2019-01-13T02:07:34.223Z,20.58
2019-01-13T02:10:37.654Z,20.58
2019-01-13T02:13:42.218Z,20.56
2019-01-13T02:16:45.706Z,20.54
2019-01-13T02:19:49.201Z,20.52
2019-01-13T02:22:53.738Z,20.52
2019-01-13T02:25:57.168Z,20.49
2019-01-13T02:29:00.656Z,20.50
2019-01-13T02:32:04.134Z,20.45
2019-01-13T02:35:07.933Z,20.46
2019-01-13T02:38:11.450Z,20.43
2019-01-13T02:41:15.962Z,20.41
2019-01-13T02:44:19.468Z,20.40
2019-01-13T02:47:22.990Z,20.39
2019-01-13T02:50:26.461Z,20.35
2019-01-13T02:53:29.970Z,20.37
2019-01-13T02:56:34.501Z,20.36
2019-01-13T02:59:38.006Z,20.33
2019-01-13T03:02:41.510Z,20.32
2019-01-13T03:05:45.005Z,20.32
2019-01-13T03:08:48.516Z,20.31
2019-01-13T03:11:53.241Z,20.30
2019-01-13T03:14:56.723Z,20.25
2019-01-13T03:18:01.271Z,20.28
2019-01-13T03:21:04.705Z,20.28
2019-01-13T03:24:08.159Z,20.27
2019-01-13T03:27:11.778Z,20.27
2019-01-13T03:30:20.058Z,20.24
2019-01-13T03:33:24.511Z,20.23
2019-01-13T03:36:27.980Z,20.21
2019-01-13T03:39:31.512Z,20.23
2019-01-13T03:42:36.018Z,20.21
2019-01-13T03:45:39.504Z,20.21
2019-01-13T03:48:43.025Z,20.21
2019-01-13T03:51:48.576Z,20.17
2019-01-13T03:54:52.022Z,20.19
2019-01-13T03:57:55.474Z,20.20
2019-01-13T04:00:58.970Z,20.17
2019-01-13T04:04:02.482Z,20.16
2019-01-13T04:07:05.969Z,20.16
2019-01-13T04:10:10.081Z,20.17
2019-01-13T04:13:13.610Z,20.16
2019-01-13T04:16:17.082Z,20.16
2019-01-13T04:19:20.586Z,20.14
2019-01-13T04:22:24.120Z,20.15
2019-01-13T04:25:27.560Z,20.12
2019-01-13T04:28:31.196Z,20.09
2019-01-13T04:31:34.631Z,20.11
2019-01-13T04:34:38.093Z,20.12
2019-01-13T04:37:41.697Z,20.10
2019-01-13T04:40:47.258Z,20.08
2019-01-13T04:43:50.787Z,20.08
2019-01-13T04:46:56.308Z,20.04
2019-01-13T04:49:59.907Z,20.07
2019-01-13T04:53:03.566Z,20.04
2019-01-13T04:56:08.007Z,20.06
2019-01-13T04:59:12.547Z,20.06
2019-01-13T05:02:16.085Z,20.03
2019-01-13T05:05:19.550Z,20.01
2019-01-13T05:08:23.062Z,20.00
2019-01-13T05:11:27.588Z,20.02
2019-01-13T05:14:31.083Z,20.01
2019-01-13T05:17:34.586Z,20.01
2019-01-13T05:20:40.138Z,19.98
2019-01-13T05:23:43.447Z,19.97
2019-01-13T05:26:46.907Z,19.98
2019-01-13T05:29:50.427Z,19.98
2019-01-13T05:32:54.949Z,19.98
2019-01-13T05:35:58.461Z,19.97
2019-01-13T05:39:04.392Z,19.94
2019-01-13T05:42:09.953Z,19.94
2019-01-13T05:45:14.682Z,19.92
2019-01-13T05:48:19.210Z,19.91
2019-01-13T05:51:22.706Z,19.91
2019-01-13T05:54:26.228Z,19.90
2019-01-13T05:57:29.656Z,19.90
2019-01-13T06:00:36.943Z,19.89
2019-01-13T06:03:40.421Z,19.86
2019-01-13T06:06:43.891Z,19.85
2019-01-13T06:09:47.406Z,19.87
2019-01-13T06:12:50.888Z,19.88
2019-01-13T06:15:54.412Z,19.88
2019-01-13T06:18:57.875Z,19.86
2019-01-13T06:22:02.140Z,19.86
2019-01-13T06:25:05.726Z,19.85
2019-01-13T06:28:15.061Z,19.84
2019-01-13T06:31:18.606Z,19.85
2019-01-13T06:34:22.070Z,19.84
2019-01-13T06:37:25.557Z,19.83
2019-01-13T06:40:29.181Z,19.84
2019-01-13T06:43:32.677Z,19.80
2019-01-13T06:46:36.151Z,19.80
2019-01-13T06:49:39.594Z,19.80
2019-01-13T06:52:43.073Z,19.78
2019-01-13T06:55:46.560Z,19.80
2019-01-13T06:58:50.203Z,19.81
2019-01-13T07:01:54.683Z,19.79
2019-01-13T07:04:58.246Z,19.77
2019-01-13T07:08:01.695Z,19.77
2019-01-13T07:11:05.133Z,19.77
2019-01-13T07:14:08.597Z,19.72
2019-01-13T07:17:12.096Z,19.74
2019-01-13T07:20:17.439Z,19.75
2019-01-13T07:23:20.938Z,19.73
2019-01-13T07:26:24.435Z,19.72
2019-01-13T07:29:27.941Z,19.71
2019-01-13T07:32:31.541Z,19.69
2019-01-13T07:35:34.977Z,19.66
2019-01-13T07:38:38.441Z,19.68
2019-01-13T07:41:41.942Z,19.67
2019-01-13T07:44:45.443Z,19.69
2019-01-13T07:47:49.055Z,19.69
2019-01-13T07:50:52.547Z,19.70
2019-01-13T07:53:56.038Z,19.70
2019-01-13T07:56:59.582Z,19.69
2019-01-13T08:00:03.052Z,19.69
2019-01-13T08:03:07.156Z,19.69
2019-01-13T08:06:10.610Z,19.68
2019-01-13T08:09:14.072Z,19.70
2019-01-13T08:12:17.558Z,19.69
2019-01-13T08:15:21.244Z,19.69
2019-01-13T08:18:24.681Z,19.68
2019-01-13T08:21:28.141Z,19.68
2019-01-13T08:24:31.675Z,19.67
2019-01-13T08:27:35.152Z,19.65
2019-01-13T08:30:39.704Z,19.66
2019-01-13T08:33:43.142Z,19.67
2019-01-13T08:36:46.596Z,19.66
2019-01-13T08:39:50.124Z,19.66
2019-01-13T08:42:53.693Z,19.66
2019-01-13T08:45:58.235Z,19.66
2019-01-13T08:49:02.757Z,19.65
2019-01-13T08:52:06.255Z,19.63
2019-01-13T08:55:10.788Z,19.65
2019-01-13T08:58:14.277Z,19.65
2019-01-13T09:01:17.791Z,19.67
2019-01-13T09:04:22.360Z,19.73
2019-01-13T09:07:25.825Z,19.73
2019-01-13T09:10:30.413Z,19.73
2019-01-13T09:13:34.171Z,19.76
2019-01-13T09:16:37.643Z,19.76
2019-01-13T09:19:41.356Z,19.74
2019-01-13T09:22:44.942Z,19.77
2019-01-13T09:25:50.517Z,19.77
2019-01-13T09:28:53.948Z,19.78
2019-01-13T09:31:57.502Z,19.79
2019-01-13T09:35:01.004Z,19.81
2019-01-13T09:38:04.581Z,19.81
2019-01-13T09:41:08.215Z,19.83
2019-01-13T09:44:11.711Z,19.82
2019-01-13T09:47:17.261Z,19.83
2019-01-13T09:50:21.140Z,19.84
2019-01-13T09:53:25.704Z,19.85
2019-01-13T09:56:30.211Z,19.88
2019-01-13T09:59:33.765Z,19.90
2019-01-13T10:02:38.238Z,19.92
2019-01-13T10:05:41.742Z,19.90
2019-01-13T10:08:45.272Z,19.93
2019-01-13T10:11:49.763Z,19.95
2019-01-13T10:14:53.264Z,19.96
2019-01-13T10:17:56.775Z,19.98
2019-01-13T10:21:00.277Z,19.98
2019-01-13T10:24:04.822Z,19.99
2019-01-13T10:27:08.413Z,19.99
2019-01-13T10:30:15.108Z,19.99
2019-01-13T10:33:18.589Z,20.01
2019-01-13T10:36:22.094Z,20.00
2019-01-13T10:39:25.580Z,20.02
2019-01-13T10:42:29.115Z,20.02
2019-01-13T10:45:32.576Z,20.06
2019-01-13T10:48:36.171Z,20.07
2019-01-13T10:51:39.776Z,20.08
2019-01-13T10:54:43.594Z,20.08
2019-01-13T10:57:48.328Z,20.08
2019-01-13T11:00:51.960Z,20.09
2019-01-13T11:03:55.449Z,20.07
2019-01-13T11:06:59.041Z,20.10
2019-01-13T11:10:02.710Z,20.07
2019-01-13T11:13:06.403Z,20.04
2019-01-13T11:16:10.082Z,20.02
2019-01-13T11:19:14.673Z,20.04
2019-01-13T11:22:18.476Z,20.00
2019-01-13T11:25:21.982Z,20.01
2019-01-13T11:28:25.596Z,20.02
2019-01-13T11:31:30.217Z,20.01
2019-01-13T11:34:33.736Z,20.02
2019-01-13T11:37:38.194Z,20.01
2019-01-13T11:40:41.770Z,20.02
2019-01-13T11:43:45.224Z,20.03
2019-01-13T11:46:48.714Z,20.02
2019-01-13T11:49:52.278Z,20.03
2019-01-13T11:53:00.085Z,20.03
2019-01-13T11:56:03.941Z,20.03
2019-01-13T11:59:07.554Z,20.02
2019-01-13T12:02:11.210Z,20.03
2019-01-13T12:05:14.818Z,20.05
2019-01-13T12:08:18.341Z,20.05
2019-01-13T12:11:21.828Z,20.04
2019-01-13T12:14:25.346Z,20.04
2019-01-13T12:17:29.948Z,20.01
2019-01-13T12:20:33.434Z,20.03
2019-01-13T12:23:38.028Z,20.04
2019-01-13T12:26:41.676Z,20.03
2019-01-13T12:29:45.181Z,20.02
2019-01-13T12:32:48.726Z,20.03
2019-01-13T12:35:52.210Z,20.03
2019-01-13T12:38:55.887Z,20.02
2019-01-13T12:41:59.387Z,20.03
2019-01-13T12:45:07.144Z,20.01
2019-01-13T12:48:10.761Z,20.00
2019-01-13T12:51:14.526Z,20.04
2019-01-13T12:54:19.004Z,20.03
2019-01-13T12:57:22.497Z,20.03
2019-01-13T13:00:25.958Z,20.01
2019-01-13T13:03:31.810Z,20.02
2019-01-13T13:06:34.761Z,20.00
2019-01-13T13:09:38.338Z,19.99
2019-01-13T13:12:41.902Z,20.01
2019-01-13T13:15:45.436Z,20.03
2019-01-13T13:18:50.059Z,20.02
2019-01-13T13:21:53.645Z,20.01
2019-01-13T13:24:57.255Z,19.99
2019-01-13T13:28:00.858Z,19.98
2019-01-13T13:31:04.351Z,19.98
2019-01-13T13:34:08.004Z,19.98
2019-01-13T13:37:13.748Z,19.98
2019-01-13T13:40:21.767Z,19.99
2019-01-13T13:43:33.672Z,20.00
2019-01-13T13:46:37.358Z,20.01
2019-01-13T13:49:41.091Z,20.00
2019-01-13T13:52:45.708Z,20.03
2019-01-13T13:55:50.259Z,20.04
2019-01-13T13:58:54.002Z,20.05
2019-01-13T14:01:57.706Z,20.03
2019-01-13T14:05:01.416Z,20.05
2019-01-13T14:08:07.127Z,20.04
2019-01-13T14:11:10.644Z,20.08
2019-01-13T14:14:16.185Z,20.08
2019-01-13T14:17:20.028Z,20.09
2019-01-13T14:20:23.548Z,20.10
2019-01-13T14:23:29.122Z,20.11
2019-01-13T14:26:32.597Z,20.12
2019-01-13T14:29:36.114Z,20.12
2019-01-13T14:32:39.649Z,20.11
2019-01-13T14:35:43.305Z,20.11
2019-01-13T14:38:46.788Z,20.13
2019-01-13T14:41:50.324Z,20.10
2019-01-13T14:44:53.968Z,20.10
2019-01-13T14:47:57.587Z,20.11
2019-01-13T14:51:01.102Z,20.13
2019-01-13T14:54:04.742Z,20.14
2019-01-13T14:57:08.232Z,20.14
2019-01-13T15:00:20.205Z,20.15
2019-01-13T15:03:23.852Z,20.16
2019-01-13T15:06:27.410Z,20.14
2019-01-13T15:09:31.089Z,20.13
2019-01-13T15:12:34.727Z,20.15
2019-01-13T15:15:38.269Z,20.13
2019-01-13T15:18:41.747Z,20.15
2019-01-13T15:21:45.292Z,20.17
2019-01-13T15:24:49.061Z,20.16
2019-01-13T15:27:52.755Z,20.16
2019-01-13T15:30:56.249Z,20.15
2019-01-13T15:34:07.199Z,20.16
2019-01-13T15:37:07.134Z,20.18
2019-01-13T15:40:12.452Z,20.17
2019-01-13T15:43:16.184Z,20.16
2019-01-13T15:46:21.109Z,20.16
2019-01-13T15:49:24.769Z,20.18
2019-01-13T15:52:28.430Z,20.19
2019-01-13T15:55:32.011Z,20.17
2019-01-13T15:58:35.670Z,20.17
2019-01-13T16:01:39.148Z,20.18
2019-01-13T16:04:42.679Z,20.20
2019-01-13T16:07:46.139Z,20.19
2019-01-13T16:10:49.727Z,20.18
2019-01-13T16:13:53.339Z,20.16
2019-01-13T16:16:57.883Z,20.21
2019-01-13T16:20:01.371Z,20.17
2019-01-13T16:23:05.079Z,20.20
2019-01-13T16:26:09.589Z,20.20
2019-01-13T16:29:13.122Z,20.21
2019-01-13T16:32:16.601Z,20.21
2019-01-13T16:35:23.246Z,20.22
2019-01-13T16:38:26.916Z,20.22
2019-01-13T16:41:30.388Z,20.21
2019-01-13T16:44:33.901Z,20.21
2019-01-13T16:47:37.373Z,20.21
2019-01-13T16:50:40.897Z,20.21
2019-01-13T16:53:44.388Z,20.21
2019-01-13T16:56:48.904Z,20.22
2019-01-13T16:59:52.392Z,20.22
2019-01-13T17:02:55.891Z,20.23
2019-01-13T17:05:59.413Z,20.22
2019-01-13T17:09:04.256Z,20.21
2019-01-13T17:12:07.676Z,20.22
2019-01-13T17:15:14.472Z,20.22
2019-01-13T17:18:18.937Z,20.25
2019-01-13T17:21:22.474Z,20.24
2019-01-13T17:24:26.157Z,20.24
2019-01-13T17:27:29.675Z,20.23
2019-01-13T17:30:36.523Z,20.24
2019-01-13T17:33:40.137Z,20.24
2019-01-13T17:36:44.655Z,20.24
2019-01-13T17:39:50.245Z,20.23
2019-01-13T17:42:53.851Z,20.24
2019-01-13T17:45:57.718Z,20.26
2019-01-13T17:49:01.356Z,20.25
2019-01-13T17:52:06.974Z,20.24
2019-01-13T17:55:13.221Z,20.24
2019-01-13T17:58:16.738Z,20.25
2019-01-13T18:01:31.709Z,20.27
2019-01-13T18:04:35.237Z,20.26
2019-01-13T18:07:38.710Z,20.26
2019-01-13T18:10:42.293Z,20.26
2019-01-13T18:13:46.766Z,20.24
2019-01-13T18:16:51.267Z,20.27
2019-01-13T18:19:54.767Z,20.27
2019-01-13T18:22:59.501Z,20.26
2019-01-13T18:26:03.152Z,20.26
2019-01-13T18:29:06.718Z,20.27
2019-01-13T18:32:10.218Z,20.28
2019-01-13T18:35:16.887Z,20.27
2019-01-13T18:38:22.558Z,20.28
2019-01-13T18:41:26.060Z,20.28
2019-01-13T18:44:30.557Z,20.28
2019-01-13T18:47:34.127Z,20.27
2019-01-13T18:50:37.589Z,20.27
2019-01-13T18:53:41.066Z,20.27
2019-01-13T18:56:44.572Z,20.27
2019-01-13T18:59:48.125Z,20.24
2019-01-13T19:02:51.757Z,20.28
2019-01-13T19:05:55.269Z,20.27
2019-01-13T19:09:06.865Z,20.28
2019-01-13T19:12:10.310Z,20.27
2019-01-13T19:15:13.764Z,20.28
2019-01-13T19:18:17.264Z,20.26
2019-01-13T19:21:20.756Z,20.28
2019-01-13T19:24:24.327Z,20.28
2019-01-13T19:27:27.972Z,20.27
2019-01-13T19:30:32.511Z,20.26
2019-01-13T19:33:38.041Z,20.26
2019-01-13T19:36:41.558Z,20.27
2019-01-13T19:39:45.057Z,20.28
2019-01-13T19:42:48.627Z,20.28
2019-01-13T19:45:52.262Z,20.27
2019-01-13T19:48:55.784Z,20.28
2019-01-13T19:52:00.285Z,20.27
2019-01-13T19:55:04.378Z,20.28
2019-01-13T19:58:08.838Z,20.25
2019-01-13T20:01:13.468Z,20.25
2019-01-13T20:04:16.939Z,20.27
2019-01-13T20:07:20.489Z,20.26
2019-01-13T20:10:23.944Z,20.22
2019-01-13T20:13:27.378Z,20.22
2019-01-13T20:16:30.972Z,20.22
2019-01-13T20:19:35.461Z,20.21
2019-01-13T20:22:38.975Z,20.21
2019-01-13T20:25:42.539Z,20.18
2019-01-13T20:28:46.176Z,20.13
2019-01-13T20:31:51.740Z,20.10
2019-01-13T20:34:55.241Z,20.06
2019-01-13T20:38:00.775Z,20.01
2019-01-13T20:41:04.342Z,19.96
2019-01-13T20:44:07.788Z,19.96
2019-01-13T20:47:13.359Z,19.94
2019-01-13T20:50:16.870Z,19.92
2019-01-13T20:53:20.349Z,19.89
2019-01-13T20:56:24.900Z,19.87
2019-01-13T20:59:28.362Z,19.88
2019-01-13T21:02:31.886Z,19.84
2019-01-13T21:05:35.396Z,19.81
2019-01-13T21:08:38.865Z,19.78
2019-01-13T21:11:42.320Z,19.79
2019-01-13T21:14:45.768Z,19.76
2019-01-13T21:17:49.351Z,19.73
2019-01-13T21:20:52.899Z,19.73
2019-01-13T21:23:58.416Z,19.70
2019-01-13T21:27:01.916Z,19.69
2019-01-13T21:30:08.511Z,19.69
2019-01-13T21:33:11.960Z,19.66
2019-01-13T21:36:15.527Z,19.67
2019-01-13T21:39:24.946Z,19.67
2019-01-13T21:42:28.442Z,19.66
2019-01-13T21:45:33.990Z,19.63
2019-01-13T21:48:37.494Z,19.60
2019-01-13T21:51:40.983Z,19.61
2019-01-13T21:54:44.475Z,19.60
2019-01-13T21:57:47.999Z,19.61
2019-01-13T22:00:52.532Z,19.58
2019-01-13T22:03:56.075Z,19.56
2019-01-13T22:06:59.729Z,19.56
2019-01-13T22:10:03.235Z,19.55
2019-01-13T22:13:08.773Z,19.52
2019-01-13T22:16:14.354Z,19.51
2019-01-13T22:19:17.917Z,19.53
2019-01-13T22:22:21.435Z,19.53
2019-01-13T22:25:33.005Z,19.52
2019-01-13T22:28:36.515Z,19.52
2019-01-13T22:31:41.061Z,19.52
2019-01-13T22:34:44.547Z,19.50
2019-01-13T22:37:55.883Z,19.50
2019-01-13T22:40:59.954Z,19.47
2019-01-13T22:44:05.487Z,19.46
2019-01-13T22:47:08.919Z,19.46
2019-01-13T22:50:12.993Z,19.44
2019-01-13T22:53:16.493Z,19.45
2019-01-13T22:56:20.005Z,19.45
2019-01-13T22:59:23.457Z,19.44
2019-01-13T23:02:27.151Z,19.43
2019-01-13T23:05:30.699Z,19.42
2019-01-13T23:08:34.325Z,19.40
2019-01-13T23:11:38.016Z,19.39
2019-01-13T23:14:41.451Z,19.38
2019-01-13T23:17:45.038Z,19.37
2019-01-13T23:20:50.112Z,19.37
2019-01-13T23:23:53.670Z,19.38
2019-01-13T23:26:58.130Z,19.37
2019-01-13T23:30:01.674Z,19.37
2019-01-13T23:33:05.190Z,19.36
2019-01-13T23:36:08.685Z,19.36
2019-01-13T23:39:14.234Z,19.32
2019-01-13T23:42:17.732Z,19.32
2019-01-13T23:45:22.253Z,19.31
2019-01-13T23:48:25.765Z,19.31
2019-01-13T23:51:29.269Z,19.30
2019-01-13T23:54:32.692Z,19.31
2019-01-13T23:57:36.294Z,19.32
